Time;durP1;ratioP1;P1;durP2;ratioP2;P2;SDS_P1;SDS_P2;PMS_P1;PMS_P2;Temp;Humidity;BMP_temperature;BMP_pressure;BME280_temperature;BME280_humidity;BME280_pressure;Samples;Min_cycle;Max_cycle;Signal;HPM_P1;HPM_P2
2022/06/01 00:01:36;;;;;;;;;;;;;;;20.18;61.23;100571.21;126051;1102;101853;-78
2022/06/01 00:04:08;;;;;;;13.17;7.53;;;;;;;20.11;62.34;100560.58;125881;1103;103331;-78
2022/06/01 00:06:43;;;;;;;12.27;6.73;;;;;;;20.07;61.79;100556.16;125942;1106;102377;-79
2022/06/01 00:09:18;;;;;;;12.40;7.07;;;;;;;20.08;62.04;100547.27;125922;1105;102857;-78
2022/06/01 00:11:50;;;;;;;12.27;6.80;;;;;;;20.09;62.39;100551.70;125943;1102;103398;-77
2022/06/01 00:14:21;;;;;;;13.77;7.07;;;;;;;20.13;62.69;100544.59;125831;1099;104169;-78
2022/06/01 00:17:01;;;;;;;13.47;6.90;;;;;;;20.16;61.82;100543.70;125894;1099;102022;-77
2022/06/01 00:19:35;;;;;;;15.20;7.10;;;;;;;20.14;62.38;100540.16;125964;1102;102196;-78
2022/06/01 00:22:14;;;;;;;12.60;7.20;;;;;;;20.09;62.69;100549.05;125971;1099;102090;-78
2022/06/01 00:24:51;;;;;;;12.83;6.97;;;;;;;20.04;62.83;100548.18;126027;1101;102036;-78
2022/06/01 00:27:31;;;;;;;14.27;7.13;;;;;;;20.02;62.35;100538.41;125955;1102;103085;-78
2022/06/01 00:30:08;;;;;;;11.83;6.70;;;;;;;20.04;62.66;100537.53;125778;1102;103311;-79
2022/06/01 00:32:42;;;;;;;15.87;7.03;;;;;;;20.07;62.67;100529.53;125888;1102;104127;-78
2022/06/01 00:35:31;;;;;;;13.63;7.70;;;;;;;20.07;62.38;100524.20;125898;1102;104255;-78
2022/06/01 00:38:06;;;;;;;13.47;7.03;;;;;;;20.04;62.91;100524.20;125949;1100;104403;-78
2022/06/01 00:40:41;;;;;;;14.80;7.13;;;;;;;19.97;62.32;100517.11;125756;1105;117587;-77
2022/06/01 00:43:44;;;;;;;15.37;7.37;;;;;;;19.96;62.30;100515.36;125770;1105;103346;-78
2022/06/01 00:46:21;;;;;;;12.80;7.43;;;;;;;19.92;62.93;100524.24;125720;1105;102074;-78
2022/06/01 00:49:11;;;;;;;14.60;7.90;;;;;;;19.91;63.48;100522.45;125831;1105;101892;-78
2022/06/01 00:51:44;;;;;;;14.27;7.40;;;;;;;19.88;63.06;100511.81;125585;1105;102340;-78
2022/06/01 00:54:17;;;;;;;11.47;7.33;;;;;;;19.84;62.76;100518.93;125730;1105;102336;-80
2022/06/01 00:56:48;;;;;;;;;;;;;;;19.74;62.85;100526.02;125728;1105;102133;-78
2022/06/01 01:05:06;;;;;;;14.27;7.80;;;;;;;19.52;63.72;100534.91;125726;1105;103886;-77
2022/06/01 01:07:42;;;;;;;16.43;7.57;;;;;;;19.47;63.64;100544.67;125956;1106;102347;-78
2022/06/01 01:10:17;;;;;;;15.53;7.93;;;;;;;19.43;63.77;100545.55;126024;1105;102863;-80
2022/06/01 01:13:10;;;;;;;14.30;8.07;;;;;;;19.37;63.94;100541.13;126093;1102;102497;-78
2022/06/01 01:15:51;;;;;;;14.77;8.00;;;;;;;19.35;64.24;100532.23;125811;1102;102755;-77
2022/06/01 01:18:41;;;;;;;13.87;8.00;;;;;;;19.35;63.99;100541.13;125869;1104;101801;-77
2022/06/01 01:21:44;;;;;;;12.63;8.17;;;;;;;19.32;64.87;100541.13;125927;1102;104204;-77
2022/06/01 01:24:27;;;;;;;14.00;8.30;;;;;;;19.29;64.92;100538.47;125891;1102;102355;-77
2022/06/01 01:26:59;;;;;;;16.70;9.10;;;;;;;19.25;64.71;100536.68;126025;1102;102061;-78
2022/06/01 01:29:42;;;;;;;19.93;9.10;;;;;;;19.18;64.43;100533.14;125941;1102;108539;-79
2022/06/01 01:32:31;;;;;;;18.33;9.03;;;;;;;19.11;65.46;100541.98;126153;1102;101827;-79
2022/06/01 01:35:08;;;;;;;17.80;9.17;;;;;;;19.06;65.18;100541.10;125971;1102;102106;-78
2022/06/01 01:37:44;;;;;;;14.63;8.43;;;;;;;19.03;65.48;100541.09;126013;1102;102572;-78
2022/06/01 01:40:19;;;;;;;16.27;8.70;;;;;;;18.99;65.57;100534.86;126058;1102;102218;-77
2022/06/01 01:42:59;;;;;;;18.37;9.57;;;;;;;18.97;65.81;100541.08;126081;1099;102111;-78
2022/06/01 01:45:33;;;;;;;16.90;9.03;;;;;;;18.93;65.62;100539.29;125993;1102;102778;-78
2022/06/01 01:48:08;;;;;;;16.87;9.07;;;;;;;18.91;65.65;100531.31;125967;1102;104249;-77
2022/06/01 01:50:44;;;;;;;17.43;9.10;;;;;;;18.90;65.78;100540.20;125877;1102;104054;-77
2022/06/01 01:53:15;;;;;;;19.07;9.10;;;;;;;18.90;65.98;100548.17;126015;1102;104143;-79
2022/06/01 01:56:05;;;;;;;16.13;9.03;;;;;;;18.90;65.95;100541.94;126036;1102;103069;-78
2022/06/01 01:58:52;;;;;;;19.17;9.07;;;;;;;18.86;65.92;100551.69;125963;1102;101774;-78
2022/06/01 02:01:59;;;;;;;16.33;8.93;;;;;;;18.81;65.92;100548.11;125924;1105;102881;-77
2022/06/01 02:07:35;;;;;;;16.57;8.87;;;;;;;18.75;66.53;100548.97;125963;1102;102074;-78
2022/06/01 02:13:01;;;;;;;15.67;9.50;;;;;;;18.69;66.64;100557.80;126080;1102;102384;-78
2022/06/01 02:15:39;;;;;;;16.50;8.83;;;;;;;18.63;66.97;100555.12;126073;1102;101942;-77
2022/06/01 02:18:18;;;;;;;16.10;8.77;;;;;;;18.60;66.64;100560.42;125998;1102;101997;-78
2022/06/01 02:21:02;;;;;;;17.23;8.77;;;;;;;18.61;67.13;100566.65;126074;1102;101869;-77
2022/06/01 02:23:42;;;;;;;18.50;9.10;;;;;;;18.61;66.82;100569.30;126058;1102;102855;-77
2022/06/01 02:26:18;;;;;;;17.87;9.33;;;;;;;18.59;67.41;100571.95;125991;1102;101863;-77
2022/06/01 02:28:54;;;;;;;16.37;9.13;;;;;;;18.55;67.54;100575.47;126129;1102;102611;-77
2022/06/01 02:31:40;;;;;;;15.67;8.23;;;;;;;18.54;67.45;100578.12;126061;1102;104080;-77
2022/06/01 02:34:13;;;;;;;17.30;8.73;;;;;;;18.57;67.60;100572.82;125988;1102;104175;-77
2022/06/01 02:36:48;;;;;;;17.90;9.13;;;;;;;18.57;67.90;100568.38;126024;1102;102054;-78
2022/06/01 02:39:36;;;;;;;18.62;9.40;;;;;;;18.61;67.74;100575.50;125991;1102;104166;-78
2022/06/01 02:42:41;;;;;;;17.57;9.00;;;;;;;18.59;68.01;100579.93;126082;1102;104693;-78
2022/06/01 02:45:14;;;;;;;17.63;9.17;;;;;;;18.61;67.99;100586.13;125988;1102;107099;-77
2022/06/01 02:47:50;;;;;;;17.45;8.85;;;;;;;18.63;68.54;100586.13;125940;1102;102869;-78
2022/06/01 02:50:35;;;;;;;17.80;9.00;;;;;;;18.65;68.11;100581.70;126048;1102;101857;-78
2022/06/01 02:53:06;;;;;;;18.77;9.03;;;;;;;18.67;67.66;100588.81;126009;1102;102860;-78
2022/06/01 02:56:05;;;;;;;18.27;9.30;;;;;;;18.72;68.41;100591.48;126079;1102;102208;-77
2022/06/01 02:58:37;;;;;;;20.30;9.53;;;;;;;18.75;68.63;100598.59;126076;1102;102032;-77
2022/06/01 03:01:11;;;;;;;15.53;8.78;;;;;;;18.79;68.65;100593.30;125998;1102;101875;-78
2022/06/01 03:03:43;;;;;;;13.97;8.60;;;;;;;18.85;68.35;100603.08;125974;1102;101904;-78
2022/06/01 03:06:22;;;;;;;16.87;9.30;;;;;;;18.90;68.43;100608.41;125974;1102;102984;-78
2022/06/01 03:08:59;;;;;;;16.77;8.73;;;;;;;18.95;68.25;100601.36;126012;1102;103293;-78
2022/06/01 03:11:41;;;;;;;17.80;8.83;;;;;;;18.99;68.13;100605.78;125871;1106;104219;-78
2022/06/01 03:14:13;;;;;;;15.13;8.60;;;;;;;19.00;68.43;100604.91;125888;1105;104242;-78
2022/06/01 03:16:44;;;;;;;17.00;8.87;;;;;;;18.99;68.56;100609.31;125997;1105;102465;-79
2022/06/01 03:19:17;;;;;;;15.57;8.90;;;;;;;19.01;68.69;100606.66;125893;1105;102667;-78
2022/06/01 03:21:48;;;;;;;18.57;8.93;;;;;;;19.03;68.36;100605.80;125934;1105;104124;-78
2022/06/01 03:24:21;;;;;;;22.03;8.93;;;;;;;19.07;68.81;100605.80;125779;1105;101928;-78
2022/06/01 03:26:52;;;;;;;18.90;9.07;;;;;;;19.08;68.78;100610.25;125997;1105;102552;-80
2022/06/01 03:29:44;;;;;;;15.37;8.60;;;;;;;19.10;68.85;100616.45;125947;1105;102091;-81
2022/06/01 03:32:16;;;;;;;19.03;8.60;;;;;;;19.08;68.43;100605.81;125938;1106;101894;-79
2022/06/01 03:34:48;;;;;;;16.80;9.30;;;;;;;19.10;68.65;100611.13;125510;1105;104294;-80
2022/06/01 03:37:20;;;;;;;18.33;9.20;;;;;;;19.11;68.93;100605.81;125633;1105;103253;-79
2022/06/01 03:39:51;;;;;;;17.60;8.87;;;;;;;19.13;68.86;100606.70;125548;1105;101860;-78
2022/06/01 03:42:23;;;;;;;16.20;8.90;;;;;;;19.15;68.55;100614.67;125521;1106;104183;-78
2022/06/01 03:47:50;;;;;;;17.27;8.43;;;;;;;19.19;69.06;100603.17;125664;1102;117369;-79
2022/06/01 03:50:27;;;;;;;18.17;8.63;;;;;;;19.22;69.02;100605.84;125800;1102;104405;-79
2022/06/01 03:53:00;;;;;;;19.07;9.27;;;;;;;19.23;69.11;100602.30;125918;1102;102346;-79
2022/06/01 03:55:34;;;;;;;17.00;8.90;;;;;;;19.26;67.95;100601.41;125980;1102;102427;-81
2022/06/01 03:58:06;;;;;;;18.43;9.83;;;;;;;19.28;68.48;100605.85;125715;1102;102376;-79
2022/06/01 04:00:40;;;;;;;17.67;8.73;;;;;;;19.31;68.38;100612.96;125688;1102;102166;-78
2022/06/01 04:03:12;;;;;;;27.03;9.93;;;;;;;19.34;68.23;100600.54;125028;1102;102926;-78
2022/06/01 04:05:45;;;;;;;16.83;8.70;;;;;;;19.40;68.77;100599.67;125313;1103;102799;-80
2022/06/01 04:08:18;;;;;;;17.02;8.85;;;;;;;19.42;68.87;100608.53;125554;1102;102476;-79
2022/06/01 04:10:50;;;;;;;16.95;8.70;;;;;;;19.42;68.10;100605.88;125634;1102;102145;-79
2022/06/01 04:13:27;;;;;;;17.80;8.53;;;;;;;19.45;69.01;100603.22;125597;1102;102402;-78
2022/06/01 04:16:02;;;;;;;18.37;8.43;;;;;;;19.55;68.00;100604.97;125462;1102;102510;-78
2022/06/01 04:18:44;;;;;;;16.90;8.93;;;;;;;19.61;68.56;100606.77;125878;1102;102256;-78
2022/06/01 04:21:23;;;;;;;19.00;9.53;;;;;;;19.61;67.83;100608.55;125780;1102;102313;-78
2022/06/01 04:24:02;;;;;;;16.63;9.13;;;;;;;19.62;68.28;100599.66;125580;1102;104174;-79
2022/06/01 04:26:34;;;;;;;18.17;9.13;;;;;;;19.63;68.45;100599.66;125512;1102;103039;-78
2022/06/01 04:29:06;;;;;;;18.00;8.97;;;;;;;19.66;68.34;100604.98;124895;1099;103686;-77
2022/06/01 04:31:39;;;;;;;19.77;9.70;;;;;;;19.68;67.80;100603.23;124462;1099;104162;-78
2022/06/01 04:34:10;;;;;;;18.73;9.20;;;;;;;19.71;67.58;100611.22;124890;1099;102873;-77
2022/06/01 04:36:55;;;;;;;17.97;9.07;;;;;;;19.76;67.96;100600.56;124391;1099;102909;-78
2022/06/01 04:39:27;;;;;;;17.20;8.53;;;;;;;19.85;67.85;100607.67;124391;1099;104169;-78
2022/06/01 04:41:59;;;;;;;20.83;9.50;;;;;;;19.92;68.00;100609.45;124372;1099;104169;-79
2022/06/01 04:44:30;;;;;;;20.10;9.43;;;;;;;19.98;68.46;100604.13;124396;1099;104232;-77
2022/06/01 04:47:01;;;;;;;16.57;9.13;;;;;;;20.06;68.42;100597.00;124806;1099;104369;-77
2022/06/01 04:49:33;;;;;;;19.97;9.27;;;;;;;20.17;68.40;100604.09;124880;1099;104245;-77
2022/06/01 04:52:05;;;;;;;17.23;9.37;;;;;;;20.21;68.17;100605.84;124399;1099;102776;-76
2022/06/01 04:54:37;;;;;;;19.60;9.20;;;;;;;20.20;67.66;100604.09;124770;1099;103007;-78
2022/06/01 04:57:10;;;;;;;20.50;9.23;;;;;;;20.15;67.72;100604.09;124352;1099;104390;-78
2022/06/01 04:59:40;;;;;;;;;;;;;;;20.09;67.95;100604.98;124838;1099;104229;-78
2022/06/01 05:02:11;;;;;;;18.40;9.23;;;;;;;20.06;67.65;100602.33;124923;1099;104229;-77
2022/06/01 05:04:43;;;;;;;16.00;9.10;;;;;;;20.07;67.20;100601.45;125783;1099;104208;-79
2022/06/01 05:07:15;;;;;;;17.60;9.73;;;;;;;20.08;67.64;100608.52;124492;1099;104326;-80
2022/06/01 05:09:46;;;;;;;22.27;9.10;;;;;;;20.07;67.15;100597.88;124988;1099;104188;-79
2022/06/01 05:12:18;;;;;;;18.47;8.40;;;;;;;20.13;67.60;100604.98;124476;1099;102452;-78
2022/06/01 05:14:49;;;;;;;16.73;8.77;;;;;;;20.21;67.40;100605.84;124438;1102;102714;-79
2022/06/01 05:17:21;;;;;;;17.55;8.45;;;;;;;20.29;67.58;100601.41;124431;1102;103955;-78
2022/06/01 05:19:54;;;;;;;16.80;8.70;;;;;;;20.33;67.96;100607.60;124631;1102;108586;-80
2022/06/01 05:22:25;;;;;;;17.57;9.07;;;;;;;20.33;67.95;100608.48;124505;1102;104383;-79
2022/06/01 05:24:58;;;;;;;14.73;8.37;;;;;;;20.32;67.89;100592.49;125361;1102;104162;-82
2022/06/01 05:27:30;;;;;;;16.07;8.47;;;;;;;20.38;67.82;100598.72;125569;1103;104226;-79
2022/06/01 05:30:02;;;;;;;17.40;8.47;;;;;;;20.44;67.74;100595.12;125400;1102;102722;-79
2022/06/01 05:32:33;;;;;;;18.67;8.43;;;;;;;20.53;66.94;100588.88;124669;1102;104198;-79
2022/06/01 05:35:05;;;;;;;19.00;8.05;;;;;;;20.62;67.22;100592.39;124623;1102;102996;-80
2022/06/01 05:37:39;;;;;;;17.23;8.70;;;;;;;20.69;67.27;100590.61;124723;1102;103352;-80
2022/06/01 05:40:13;;;;;;;13.63;7.80;;;;;;;20.73;67.54;100589.71;124627;1101;104223;-79
2022/06/01 05:42:45;;;;;;;16.80;8.10;;;;;;;20.75;67.22;100590.58;124446;1102;104224;-80
2022/06/01 05:45:19;;;;;;;18.90;7.97;;;;;;;20.77;66.69;100594.15;125446;1099;104455;-79
2022/06/01 05:47:51;;;;;;;16.27;8.15;;;;;;;20.83;67.01;100586.12;125089;1099;103569;-79
2022/06/01 05:50:24;;;;;;;17.40;8.10;;;;;;;20.92;66.50;100589.63;124721;1099;109025;-79
2022/06/01 05:52:57;;;;;;;14.90;8.40;;;;;;;20.94;66.48;100594.06;124609;1102;104373;-79
2022/06/01 05:55:27;;;;;;;;;;;;;;;20.92;66.00;100589.63;124586;1102;102654;-79
2022/06/01 05:58:00;;;;;;;16.37;8.23;;;;;;;20.99;66.54;100594.91;125382;1102;104491;-79
2022/06/01 06:00:33;;;;;;;16.55;8.43;;;;;;;21.09;66.08;100586.86;125375;1102;104373;-79
2022/06/01 06:03:05;;;;;;;15.17;8.27;;;;;;;21.14;65.90;100587.70;125508;1102;103569;-82
2022/06/01 06:08:30;;;;;;;17.40;9.03;;;;;;;21.27;65.78;100585.84;125602;1102;102972;-81
2022/06/01 06:14:40;;;;;;;14.97;7.20;;;;;;;21.43;65.52;100578.63;125486;1102;103062;-78
2022/06/01 06:17:13;;;;;;;16.07;7.33;;;;;;;21.52;65.45;100591.94;124751;1102;104230;-79
2022/06/01 06:19:45;;;;;;;14.68;8.05;;;;;;;21.51;65.05;100591.03;124709;1102;103950;-79
2022/06/01 06:22:20;;;;;;;19.60;8.17;;;;;;;21.61;65.46;100601.63;124696;1102;104233;-80
2022/06/01 06:24:53;;;;;;;18.50;7.83;;;;;;;21.67;64.90;100589.11;125651;1099;104111;-79
2022/06/01 06:27:33;;;;;;;16.30;7.58;;;;;;;21.77;65.78;100587.27;125595;1099;104255;-80
2022/06/01 06:30:06;;;;;;;16.57;8.20;;;;;;;21.85;65.11;100582.73;126107;1098;102901;-80
2022/06/01 06:32:46;;;;;;;17.93;8.30;;;;;;;21.89;65.28;100580.91;125650;1102;103401;-81
2022/06/01 06:35:18;;;;;;;16.13;7.93;;;;;;;21.97;64.93;100572.81;125592;1099;104159;-82
2022/06/01 06:37:59;;;;;;;15.23;7.27;;;;;;;22.00;64.61;100565.67;125766;1099;102955;-82
2022/06/01 06:40:39;;;;;;;14.10;7.40;;;;;;;22.10;64.85;100565.58;125517;1101;103481;-82
2022/06/01 06:43:16;;;;;;;17.03;7.73;;;;;;;22.19;64.10;100565.45;125440;1102;103330;-81
2022/06/01 06:46:15;;;;;;;12.87;7.33;;;;;;;22.25;64.12;100566.29;125593;1102;104171;-82
2022/06/01 06:48:55;;;;;;;15.13;7.40;;;;;;;22.32;64.56;100559.11;125573;1102;104214;-80
2022/06/01 06:51:31;;;;;;;14.90;7.50;;;;;;;22.39;63.99;100555.47;125496;1102;103269;-80
2022/06/01 06:54:06;;;;;;;14.57;7.33;;;;;;;22.47;64.20;100554.47;125283;1103;102941;-79
2022/06/01 06:56:42;;;;;;;14.03;7.13;;;;;;;22.60;64.31;100559.64;125471;1102;104254;-78
2022/06/01 06:59:17;;;;;;;15.73;6.83;;;;;;;22.75;63.77;100555.90;125447;1102;104313;-81
2022/06/01 07:01:53;;;;;;;14.40;7.43;;;;;;;22.94;63.71;100550.29;125360;1103;119523;-80
2022/06/01 07:04:31;;;;;;;12.67;6.90;;;;;;;23.10;63.27;100559.88;125350;1102;102608;-80
2022/06/01 07:07:09;;;;;;;12.83;7.00;;;;;;;23.24;63.57;100546.28;125476;1102;104440;-80
2022/06/01 07:09:50;;;;;;;13.83;6.73;;;;;;;23.25;62.64;100550.73;125352;1102;104945;-80
2022/06/01 07:12:40;;;;;;;16.57;7.57;;;;;;;23.40;62.82;100540.67;125391;1102;104376;-82
2022/06/01 07:15:32;;;;;;;14.33;6.33;;;;;;;23.57;62.39;100535.91;125651;1102;103412;-80
2022/06/01 07:18:45;;;;;;;16.60;7.03;;;;;;;23.77;62.57;100535.56;125592;1102;104409;-81
2022/06/01 07:21:42;;;;;;;14.33;7.37;;;;;;;24.02;62.48;100537.82;125626;1102;104156;-82
2022/06/01 07:24:42;;;;;;;14.90;6.97;;;;;;;24.25;61.96;100537.37;125719;1099;104258;-81
2022/06/01 07:27:34;;;;;;;15.27;6.43;;;;;;;24.44;61.89;100532.50;125754;1099;102348;-82
2022/06/01 07:30:10;;;;;;;13.57;6.33;;;;;;;24.65;61.89;100533.88;125518;1102;102266;-80
2022/06/01 07:32:55;;;;;;;15.67;7.07;;;;;;;24.83;61.09;100529.89;125610;1099;107494;-79
2022/06/01 07:35:35;;;;;;;14.63;6.63;;;;;;;24.94;60.64;100527.83;125635;1099;102968;-79
2022/06/01 07:44:17;;;;;;;17.43;7.00;;;;;;;25.43;59.00;100520.43;126122;1099;104206;-82
2022/06/01 07:47:03;;;;;;;;;;;;;;;;;;;;;
2022/06/01 07:49:46;;;;;;;15.13;6.90;;;;;;;25.70;58.29;100526.00;126251;1099;104120;-84
2022/06/01 07:55:43;;;;;;;13.70;6.17;;;;;;;26.27;57.26;100527.16;125641;1099;104169;-83
2022/06/01 07:58:21;;;;;;;14.73;6.40;;;;;;;26.47;57.31;100528.36;126299;1099;104435;-80
2022/06/01 08:01:40;;;;;;;14.07;6.43;;;;;;;26.65;56.43;100524.25;125638;1099;102384;-81
2022/06/01 08:14:09;;;;;;;18.00;6.10;;;;;;;27.08;55.16;100529.19;125535;1102;104274;-83
2022/06/01 08:16:51;;;;;;;11.83;5.30;;;;;;;27.26;53.62;100519.61;125505;1102;102751;-81
2022/06/01 08:19:45;;;;;;;12.27;5.30;;;;;;;27.42;54.04;100521.82;125619;1102;102485;-84
2022/06/01 08:23:02;;;;;;;12.60;5.83;;;;;;;27.64;53.05;100516.56;125487;1102;104265;-82
2022/06/01 08:26:01;;;;;;;13.60;5.87;;;;;;;27.87;52.90;100518.45;125562;1102;101941;-83
2022/06/01 08:28:54;;;;;;;11.73;5.53;;;;;;;27.96;52.46;100509.20;125616;1102;102754;-82
2022/06/01 08:31:39;;;;;;;14.77;5.90;;;;;;;28.06;52.55;100505.20;125533;1102;104286;-77
2022/06/01 08:34:17;;;;;;;12.73;5.67;;;;;;;28.22;52.81;100507.33;125474;1102;103810;-80
2022/06/01 08:36:53;;;;;;;10.93;5.60;;;;;;;28.33;52.52;100510.53;124649;1102;104280;-77
2022/06/01 08:39:34;;;;;;;13.43;5.60;;;;;;;28.42;52.17;100503.88;125450;1102;104172;-80
2022/06/01 08:42:32;;;;;;;13.27;5.70;;;;;;;28.53;52.28;100512.44;125452;1102;104928;-78
2022/06/01 08:45:07;;;;;;;9.43;5.40;;;;;;;28.35;50.21;100513.17;126034;1099;107756;-78
2022/06/01 08:47:54;;;;;;;11.37;5.67;;;;;;;28.33;50.14;100506.00;126364;1099;102821;-77
2022/06/01 08:50:38;;;;;;;9.60;5.33;;;;;;;28.51;49.72;100503.53;126043;1099;103594;-79
2022/06/01 08:53:17;;;;;;;9.00;5.07;;;;;;;28.63;49.33;100497.69;125580;1099;104262;-81
2022/06/01 08:55:57;;;;;;;13.37;5.63;;;;;;;28.57;48.15;100497.89;126289;1099;103877;-79
2022/06/01 08:58:41;;;;;;;15.43;5.07;;;;;;;28.54;49.21;100497.14;125314;1102;104134;-80
2022/06/01 09:01:30;;;;;;;16.73;5.30;;;;;;;28.60;49.09;100492.41;125415;1102;102573;-80
2022/06/01 09:04:25;;;;;;;14.17;5.60;;;;;;;28.65;48.69;100500.32;125402;1102;102784;-80
2022/06/01 09:07:24;;;;;;;11.90;5.03;;;;;;;28.65;48.86;100501.19;125567;1102;102855;-80
2022/06/01 09:10:26;;;;;;;14.03;5.67;;;;;;;28.65;48.35;100494.92;125497;1102;104184;-81
2022/06/01 09:13:23;;;;;;;9.13;5.22;;;;;;;28.69;47.94;100492.05;125760;1102;102428;-81
2022/06/01 09:16:15;;;;;;;11.77;5.60;;;;;;;28.87;47.93;100492.23;125654;1102;102174;-82
2022/06/01 09:19:01;;;;;;;10.60;4.70;;;;;;;29.04;47.58;100496.95;125630;1102;103204;-81
2022/06/01 09:25:03;;;;;;;12.80;4.60;;;;;;;29.44;47.09;100486.34;125832;1102;102355;-81
2022/06/01 09:28:01;;;;;;;14.03;5.23;;;;;;;29.60;46.87;100489.24;125589;1102;102539;-79
2022/06/01 09:31:04;;;;;;;12.43;5.33;;;;;;;29.69;46.74;100486.14;125552;1102;104268;-80
2022/06/01 09:34:35;;;;;;;9.73;5.17;;;;;;;29.74;46.04;100475.98;125556;1102;103002;-78
2022/06/01 09:37:17;;;;;;;9.10;4.95;;;;;;;29.77;46.59;100475.85;125596;1102;104229;-78
2022/06/01 09:40:07;;;;;;;8.60;4.60;;;;;;;29.87;45.49;100471.83;125457;1102;104185;-81
2022/06/01 09:42:52;;;;;;;11.07;5.17;;;;;;;29.99;45.26;100473.08;125445;1102;103893;-82
2022/06/01 09:45:55;;;;;;;10.33;4.63;;;;;;;30.10;44.61;100478.87;125597;1106;102600;-82
2022/06/01 09:48:58;;;;;;;13.17;5.17;;;;;;;30.14;44.41;100474.22;125529;1102;104179;-79
2022/06/01 09:52:00;;;;;;;14.17;4.80;;;;;;;30.30;43.43;100475.23;125691;1106;102598;-80
2022/06/01 09:54:49;;;;;;;10.70;4.70;;;;;;;30.26;43.09;100470.94;125473;1106;103011;-79
2022/06/01 09:57:34;;;;;;;16.50;5.20;;;;;;;30.39;43.64;100468.56;125583;1105;108497;-80
2022/06/01 10:06:36;;;;;;;10.20;4.30;;;;;;;30.68;42.25;100474.38;125291;1105;102488;-79
2022/06/01 10:09:44;;;;;;;10.90;4.30;;;;;;;30.33;41.71;100478.77;125289;1102;119470;-80
2022/06/01 10:12:58;;;;;;;9.07;4.67;;;;;;;29.89;41.82;100467.22;125460;1102;102645;-80
2022/06/01 10:15:40;;;;;;;9.57;4.87;;;;;;;29.67;42.19;100469.98;125601;1103;102321;-79
2022/06/01 10:18:19;;;;;;;8.70;4.43;;;;;;;29.57;42.43;100465.92;125418;1103;103033;-78
2022/06/01 10:20:55;;;;;;;12.43;4.57;;;;;;;29.52;42.44;100463.41;125569;1101;102035;-80
2022/06/01 10:23:35;;;;;;;12.93;4.70;;;;;;;29.44;42.51;100468.28;125567;1102;104361;-80
2022/06/01 10:26:23;;;;;;;9.20;4.73;;;;;;;29.52;42.40;100459.84;125624;1102;104210;-81
2022/06/01 10:29:06;;;;;;;11.63;5.00;;;;;;;29.71;42.05;100460.77;125676;1105;103039;-80
2022/06/01 10:31:51;;;;;;;7.42;4.53;;;;;;;29.94;41.72;100457.06;125539;1102;102821;-81
2022/06/01 10:34:46;;;;;;;11.70;4.53;;;;;;;29.92;41.58;100452.69;125320;1102;104323;-79
2022/06/01 10:37:30;;;;;;;10.98;4.78;;;;;;;30.03;41.44;100452.16;125403;1102;104300;-81
2022/06/01 10:40:09;;;;;;;11.80;4.40;;;;;;;30.06;40.73;100454.73;125301;1102;104165;-79
2022/06/01 10:45:45;;;;;;;8.93;4.40;;;;;;;30.31;40.76;100449.08;125505;1102;103225;-80
2022/06/01 10:48:24;;;;;;;8.70;4.67;;;;;;;30.53;40.43;100453.50;125493;1101;104226;-80
2022/06/01 10:51:10;;;;;;;9.97;4.37;;;;;;;30.41;39.83;100444.13;125482;1102;104211;-80
2022/06/01 10:54:12;;;;;;;12.53;4.42;;;;;;;30.34;40.02;100442.61;117199;1099;10001391;-80
2022/06/01 10:56:45;;;;;;;10.57;5.00;;;;;;;30.39;39.80;100436.08;126479;1099;103278;-80
2022/06/01 10:59:24;;;;;;;9.43;4.43;;;;;;;30.55;39.48;100436.20;125579;1099;104523;-79
2022/06/01 11:02:22;;;;;;;7.57;4.37;;;;;;;30.54;39.41;100433.57;126143;1099;103262;-78
2022/06/01 11:05:23;;;;;;;7.00;4.33;;;;;;;30.57;38.97;100433.42;125583;1102;102595;-78
2022/06/01 11:08:11;;;;;;;;;;;;;;;30.54;39.28;100422.74;125571;1102;104152;-82
2022/06/01 11:10:58;;;;;;;9.20;4.40;;;;;;;30.69;39.28;100424.70;125471;1102;105143;-79
2022/06/01 11:13:56;;;;;;;11.67;4.60;;;;;;;30.91;39.09;100415.51;125431;1102;102874;-83
2022/06/01 11:16:44;;;;;;;11.33;4.43;;;;;;;31.10;39.10;100407.34;125345;1102;104182;-81
2022/06/01 11:19:45;;;;;;;12.20;4.57;;;;;;;31.10;38.82;100410.92;125481;1102;102981;-80
2022/06/01 11:22:37;;;;;;;13.73;4.90;;;;;;;31.06;38.81;100408.48;125539;1102;109171;-81
2022/06/01 11:25:24;;;;;;;11.47;4.80;;;;;;;31.16;38.88;100413.31;125901;1102;102126;-81
2022/06/01 11:28:16;;;;;;;8.80;4.53;;;;;;;31.00;38.48;100409.66;125605;1102;104130;-81
2022/06/01 11:31:13;;;;;;;10.07;4.37;;;;;;;30.88;38.54;100402.11;125568;1102;103467;-81
2022/06/01 11:34:08;;;;;;;11.47;4.50;;;;;;;30.82;38.26;100409.61;125758;1102;102496;-81
2022/06/01 11:37:04;;;;;;;;;;;;;;;;;;;;;
2022/06/01 11:39:53;;;;;;;;;;;;;;;30.95;38.31;100401.73;125545;1102;104121;-81
2022/06/01 11:42:50;;;;;;;9.00;4.43;;;;;;;31.00;38.24;100390.69;125557;1105;103306;-82
2022/06/01 11:45:39;;;;;;;13.07;4.60;;;;;;;30.97;38.13;100389.00;125515;1102;102577;-81
2022/06/01 11:48:37;;;;;;;10.03;4.30;;;;;;;30.90;37.84;100389.36;125716;1102;103494;-80
2022/06/01 11:51:20;;;;;;;8.13;4.20;;;;;;;30.88;38.12;100389.44;125578;1102;102609;-80
2022/06/01 11:54:09;;;;;;;10.20;4.70;;;;;;;30.74;37.71;100375.72;125491;1102;102966;-81
2022/06/01 11:56:58;;;;;;;6.70;4.03;;;;;;;30.64;37.23;100378.02;125481;1102;103110;-81
2022/06/01 12:03:56;;;;;;;8.90;4.50;;;;;;;30.73;37.26;100374.86;125255;1105;103586;-83
2022/06/01 12:06:54;;;;;;;13.10;4.30;;;;;;;30.87;37.09;100381.39;125301;1105;111960;-81
2022/06/01 12:10:01;;;;;;;13.33;4.20;;;;;;;31.00;36.85;100371.72;125398;1106;104159;-80
2022/06/01 12:13:24;;;;;;;10.23;4.00;;;;;;;31.17;36.95;100377.14;125333;1105;103564;-80
2022/06/01 12:16:31;;;;;;;8.33;3.93;;;;;;;31.42;36.76;100365.00;125210;1105;104083;-79
2022/06/01 12:19:36;;;;;;;8.63;4.50;;;;;;;31.60;36.32;100371.31;125007;1105;104179;-80
2022/06/01 12:29:05;;;;;;;10.40;4.33;;;;;;;31.52;35.71;100371.70;125089;1106;102341;-79
2022/06/01 12:32:13;;;;;;;11.20;4.20;;;;;;;31.65;35.42;100373.74;125168;1104;102891;-79
2022/06/01 12:35:24;;;;;;;9.07;4.10;;;;;;;31.50;35.15;100370.88;125199;1106;103699;-79
2022/06/01 12:38:00;;;;;;;10.67;4.40;;;;;;;31.32;35.37;100370.05;125120;1105;102730;-77
2022/06/01 12:40:41;;;;;;;9.10;4.00;;;;;;;31.20;35.27;100373.41;125312;1105;103598;-80
2022/06/01 12:43:29;;;;;;;10.30;4.00;;;;;;;31.13;35.33;100378.24;125294;1106;103885;-82
2022/06/01 12:46:22;;;;;;;7.73;3.80;;;;;;;31.06;35.04;100375.96;125456;1102;104418;-80
2022/06/01 12:49:34;;;;;;;8.50;3.73;;;;;;;31.13;35.06;100372.82;125580;1102;103510;-79
2022/06/01 12:55:25;;;;;;;11.53;3.80;;;;;;;31.43;34.57;100353.21;125484;1102;104121;-82
2022/06/01 12:58:20;;;;;;;6.63;3.77;;;;;;;31.49;34.43;100355.59;125525;1102;103623;-81
2022/06/01 13:01:20;;;;;;;7.97;3.63;;;;;;;31.45;34.64;100355.84;125603;1102;102916;-82
2022/06/01 13:04:09;;;;;;;9.00;3.80;;;;;;;31.28;34.14;100354.89;125377;1102;102806;-81
2022/06/01 13:07:25;;;;;;;;;;;;;;;;;;;;;
2022/06/01 13:10:10;;;;;;;10.40;3.80;;;;;;;31.01;34.61;100340.98;125668;1102;104389;-81
2022/06/01 13:13:15;;;;;;;;;;;;;;;;;;;;;
2022/06/01 13:15:57;;;;;;;8.37;4.00;;;;;;;30.92;34.61;100338.71;125569;1103;102418;-80
2022/06/01 13:19:00;;;;;;;;;;;;;;;;;;;;;
2022/06/01 13:21:53;;;;;;;8.73;4.07;;;;;;;30.78;34.56;100339.42;125816;1102;102875;-82
2022/06/01 13:24:34;;;;;;;12.90;4.00;;;;;;;30.72;34.44;100346.02;125668;1099;103470;-81
2022/06/01 13:27:20;;;;;;;10.07;3.97;;;;;;;30.69;34.44;100339.89;125711;1101;103364;-81
2022/06/01 13:30:16;;;;;;;;;;;;;;;;;;;;;